sensor_id;sensor_type;location;lat;lon;timestamp;temperature;humidity
16289;DHT22;26089;43.538;5.250;2023-04-03T00:01:45;10.50;99.90
16289;DHT22;26089;43.538;5.250;2023-04-03T00:04:12;10.30;99.90
16289;DHT22;26089;43.538;5.250;2023-04-03T00:06:38;10.20;99.90
16289;DHT22;26089;43.538;5.250;2023-04-03T00:09:07;10.30;99.90
16289;DHT22;26089;43.538;5.250;2023-04-03T00:11:34;10.30;99.90
16289;DHT22;26089;43.538;5.250;2023-04-03T00:14:01;10.40;99.90
16289;DHT22;26089;43.538;5.250;2023-04-03T00:16:28;10.40;99.90
16289;DHT22;26089;43.538;5.250;2023-04-03T00:18:55;10.70;99.90
16289;DHT22;26089;43.538;5.250;2023-04-03T00:21:22;10.40;99.90
16289;DHT22;26089;43.538;5.250;2023-04-03T00:23:49;10.30;99.90
16289;DHT22;26089;43.538;5.250;2023-04-03T00:26:17;10.30;99.90
16289;DHT22;26089;43.538;5.250;2023-04-03T00:28:45;10.30;99.90
16289;DHT22;26089;43.538;5.250;2023-04-03T00:31:14;10.30;99.90
16289;DHT22;26089;43.538;5.250;2023-04-03T00:33:41;10.30;99.90
16289;DHT22;26089;43.538;5.250;2023-04-03T00:36:09;10.20;99.90
16289;DHT22;26089;43.538;5.250;2023-04-03T00:38:37;10.10;99.90
16289;DHT22;26089;43.538;5.250;2023-04-03T00:41:04;10.20;99.90
16289;DHT22;26089;43.538;5.250;2023-04-03T00:43:33;10.20;99.90
16289;DHT22;26089;43.538;5.250;2023-04-03T00:46:00;10.20;99.90
16289;DHT22;26089;43.538;5.250;2023-04-03T00:48:30;10.20;99.90
16289;DHT22;26089;43.538;5.250;2023-04-03T00:50:58;10.20;99.90
16289;DHT22;26089;43.538;5.250;2023-04-03T00:53:29;10.10;99.90
16289;DHT22;26089;43.538;5.250;2023-04-03T00:55:57;10.00;99.90
16289;DHT22;26089;43.538;5.250;2023-04-03T00:58:30;10.40;99.90
16289;DHT22;26089;43.538;5.250;2023-04-03T01:01:05;10.00;99.90
16289;DHT22;26089;43.538;5.250;2023-04-03T01:03:33;9.60;99.90
16289;DHT22;26089;43.538;5.250;2023-04-03T01:06:01;9.90;99.90
16289;DHT22;26089;43.538;5.250;2023-04-03T01:08:27;9.90;99.90
16289;DHT22;26089;43.538;5.250;2023-04-03T01:10:55;9.70;99.90
16289;DHT22;26089;43.538;5.250;2023-04-03T01:13:25;9.80;99.90
16289;DHT22;26089;43.538;5.250;2023-04-03T01:15:52;10.10;99.90
16289;DHT22;26089;43.538;5.250;2023-04-03T01:18:22;9.90;99.90
16289;DHT22;26089;43.538;5.250;2023-04-03T01:24:00;9.80;99.90
16289;DHT22;26089;43.538;5.250;2023-04-03T01:26:28;9.70;99.90
16289;DHT22;26089;43.538;5.250;2023-04-03T01:28:56;9.70;99.90
16289;DHT22;26089;43.538;5.250;2023-04-03T01:31:27;9.70;99.90
16289;DHT22;26089;43.538;5.250;2023-04-03T01:33:56;9.70;99.90
16289;DHT22;26089;43.538;5.250;2023-04-03T01:36:25;10.00;99.90
16289;DHT22;26089;43.538;5.250;2023-04-03T01:38:53;9.70;99.90
16289;DHT22;26089;43.538;5.250;2023-04-03T01:41:20;9.70;99.90
16289;DHT22;26089;43.538;5.250;2023-04-03T01:43:47;9.70;99.90
16289;DHT22;26089;43.538;5.250;2023-04-03T01:46:14;9.60;99.90
16289;DHT22;26089;43.538;5.250;2023-04-03T01:48:42;9.70;99.90
16289;DHT22;26089;43.538;5.250;2023-04-03T01:51:10;9.70;99.90
16289;DHT22;26089;43.538;5.250;2023-04-03T01:53:37;9.70;99.90
16289;DHT22;26089;43.538;5.250;2023-04-03T01:56:05;9.70;99.90
16289;DHT22;26089;43.538;5.250;2023-04-03T01:58:32;9.70;99.90
16289;DHT22;26089;43.538;5.250;2023-04-03T02:00:59;9.70;99.90
16289;DHT22;26089;43.538;5.250;2023-04-03T02:03:27;9.60;99.90
16289;DHT22;26089;43.538;5.250;2023-04-03T02:05:54;9.70;99.90
16289;DHT22;26089;43.538;5.250;2023-04-03T02:08:23;9.60;99.90
16289;DHT22;26089;43.538;5.250;2023-04-03T02:10:50;9.50;99.90
16289;DHT22;26089;43.538;5.250;2023-04-03T02:13:17;9.60;99.90
16289;DHT22;26089;43.538;5.250;2023-04-03T02:15:45;9.60;99.90
16289;DHT22;26089;43.538;5.250;2023-04-03T02:18:12;9.60;99.90
16289;DHT22;26089;43.538;5.250;2023-04-03T02:20:40;9.60;99.90
16289;DHT22;26089;43.538;5.250;2023-04-03T02:23:07;9.60;99.90
16289;DHT22;26089;43.538;5.250;2023-04-03T02:25:35;9.50;99.90
16289;DHT22;26089;43.538;5.250;2023-04-03T02:28:02;9.50;99.90
16289;DHT22;26089;43.538;5.250;2023-04-03T02:30:29;9.60;99.90
16289;DHT22;26089;43.538;5.250;2023-04-03T02:32:56;9.50;99.90
16289;DHT22;26089;43.538;5.250;2023-04-03T02:35:23;9.60;99.90
16289;DHT22;26089;43.538;5.250;2023-04-03T02:37:50;9.60;99.90
16289;DHT22;26089;43.538;5.250;2023-04-03T02:40:17;9.60;99.90
16289;DHT22;26089;43.538;5.250;2023-04-03T02:42:46;10.20;99.90
16289;DHT22;26089;43.538;5.250;2023-04-03T02:45:13;9.60;99.90
16289;DHT22;26089;43.538;5.250;2023-04-03T02:47:40;9.60;99.90
16289;DHT22;26089;43.538;5.250;2023-04-03T02:50:07;9.60;99.90
16289;DHT22;26089;43.538;5.250;2023-04-03T02:52:34;9.60;99.90
16289;DHT22;26089;43.538;5.250;2023-04-03T02:55:01;9.60;99.90
16289;DHT22;26089;43.538;5.250;2023-04-03T02:57:29;9.50;99.90
16289;DHT22;26089;43.538;5.250;2023-04-03T02:59:57;9.50;99.90
16289;DHT22;26089;43.538;5.250;2023-04-03T03:02:24;9.50;99.90
16289;DHT22;26089;43.538;5.250;2023-04-03T03:04:51;9.50;99.90
16289;DHT22;26089;43.538;5.250;2023-04-03T03:07:18;9.40;99.90
16289;DHT22;26089;43.538;5.250;2023-04-03T03:09:45;9.40;99.90
16289;DHT22;26089;43.538;5.250;2023-04-03T03:12:12;9.40;99.90
16289;DHT22;26089;43.538;5.250;2023-04-03T03:14:39;9.40;99.90
16289;DHT22;26089;43.538;5.250;2023-04-03T03:17:07;9.40;99.90
16289;DHT22;26089;43.538;5.250;2023-04-03T03:19:34;9.30;99.90
16289;DHT22;26089;43.538;5.250;2023-04-03T03:22:01;9.30;99.90
16289;DHT22;26089;43.538;5.250;2023-04-03T03:24:28;9.30;99.90
16289;DHT22;26089;43.538;5.250;2023-04-03T03:26:55;9.20;99.90
16289;DHT22;26089;43.538;5.250;2023-04-03T03:29:22;9.30;99.90
16289;DHT22;26089;43.538;5.250;2023-04-03T03:31:49;8.90;99.90
16289;DHT22;26089;43.538;5.250;2023-04-03T03:34:17;9.30;99.90
16289;DHT22;26089;43.538;5.250;2023-04-03T03:36:44;9.20;99.90
16289;DHT22;26089;43.538;5.250;2023-04-03T03:39:11;9.10;99.90
16289;DHT22;26089;43.538;5.250;2023-04-03T03:41:38;9.20;99.90
16289;DHT22;26089;43.538;5.250;2023-04-03T03:44:05;9.20;99.90
16289;DHT22;26089;43.538;5.250;2023-04-03T03:46:32;9.10;99.90
16289;DHT22;26089;43.538;5.250;2023-04-03T03:49:00;9.10;99.90
16289;DHT22;26089;43.538;5.250;2023-04-03T03:51:28;9.30;99.90
16289;DHT22;26089;43.538;5.250;2023-04-03T03:53:55;9.00;99.90
16289;DHT22;26089;43.538;5.250;2023-04-03T03:56:22;9.00;99.90
16289;DHT22;26089;43.538;5.250;2023-04-03T03:58:49;9.00;99.90
16289;DHT22;26089;43.538;5.250;2023-04-03T04:01:16;8.90;99.90
16289;DHT22;26089;43.538;5.250;2023-04-03T04:03:43;8.90;99.90
16289;DHT22;26089;43.538;5.250;2023-04-03T04:06:10;8.90;99.90
16289;DHT22;26089;43.538;5.250;2023-04-03T04:08:39;8.90;99.90
16289;DHT22;26089;43.538;5.250;2023-04-03T04:11:06;8.90;99.90
16289;DHT22;26089;43.538;5.250;2023-04-03T04:13:33;8.60;99.90
16289;DHT22;26089;43.538;5.250;2023-04-03T04:16:00;8.90;99.90
16289;DHT22;26089;43.538;5.250;2023-04-03T04:18:27;8.80;99.90
16289;DHT22;26089;43.538;5.250;2023-04-03T04:20:55;8.80;99.90
16289;DHT22;26089;43.538;5.250;2023-04-03T04:23:21;9.20;99.90
16289;DHT22;26089;43.538;5.250;2023-04-03T04:25:51;8.70;99.90
16289;DHT22;26089;43.538;5.250;2023-04-03T04:28:18;8.70;99.90
16289;DHT22;26089;43.538;5.250;2023-04-03T04:30:45;8.80;99.90
16289;DHT22;26089;43.538;5.250;2023-04-03T04:33:12;8.00;99.90
16289;DHT22;26089;43.538;5.250;2023-04-03T04:35:41;8.70;99.90
16289;DHT22;26089;43.538;5.250;2023-04-03T04:38:08;8.70;99.90
16289;DHT22;26089;43.538;5.250;2023-04-03T04:40:36;8.80;99.90
16289;DHT22;26089;43.538;5.250;2023-04-03T04:43:04;8.80;99.90
16289;DHT22;26089;43.538;5.250;2023-04-03T04:45:31;8.90;99.90
16289;DHT22;26089;43.538;5.250;2023-04-03T04:47:58;8.40;99.90
16289;DHT22;26089;43.538;5.250;2023-04-03T04:50:25;8.70;99.90
16289;DHT22;26089;43.538;5.250;2023-04-03T04:52:52;8.80;99.90
16289;DHT22;26089;43.538;5.250;2023-04-03T04:55:19;8.80;99.90
16289;DHT22;26089;43.538;5.250;2023-04-03T04:57:46;8.80;99.90
16289;DHT22;26089;43.538;5.250;2023-04-03T05:00:15;8.80;99.90
16289;DHT22;26089;43.538;5.250;2023-04-03T05:02:43;8.80;99.90
16289;DHT22;26089;43.538;5.250;2023-04-03T05:05:10;9.30;99.90
16289;DHT22;26089;43.538;5.250;2023-04-03T05:07:36;8.80;99.90
16289;DHT22;26089;43.538;5.250;2023-04-03T05:10:04;8.80;99.90
16289;DHT22;26089;43.538;5.250;2023-04-03T05:12:32;8.80;99.90
16289;DHT22;26089;43.538;5.250;2023-04-03T05:14:59;8.50;99.90
16289;DHT22;26089;43.538;5.250;2023-04-03T05:17:27;8.80;99.90
16289;DHT22;26089;43.538;5.250;2023-04-03T05:19:54;8.80;99.90
16289;DHT22;26089;43.538;5.250;2023-04-03T05:22:21;8.80;99.90
16289;DHT22;26089;43.538;5.250;2023-04-03T05:24:48;8.80;99.90
16289;DHT22;26089;43.538;5.250;2023-04-03T05:27:15;8.90;99.90
16289;DHT22;26089;43.538;5.250;2023-04-03T05:29:42;8.90;99.90
16289;DHT22;26089;43.538;5.250;2023-04-03T05:32:09;8.90;99.90
16289;DHT22;26089;43.538;5.250;2023-04-03T05:34:38;8.90;99.90
16289;DHT22;26089;43.538;5.250;2023-04-03T05:37:05;8.60;99.90
16289;DHT22;26089;43.538;5.250;2023-04-03T05:39:32;8.90;99.90
16289;DHT22;26089;43.538;5.250;2023-04-03T05:41:59;8.90;99.90
16289;DHT22;26089;43.538;5.250;2023-04-03T05:44:26;8.90;99.90
16289;DHT22;26089;43.538;5.250;2023-04-03T05:46:53;8.90;99.90
16289;DHT22;26089;43.538;5.250;2023-04-03T05:49:20;8.90;99.90
16289;DHT22;26089;43.538;5.250;2023-04-03T05:51:48;9.00;99.90
16289;DHT22;26089;43.538;5.250;2023-04-03T05:54:18;9.00;99.90
16289;DHT22;26089;43.538;5.250;2023-04-03T05:56:46;8.90;99.90
16289;DHT22;26089;43.538;5.250;2023-04-03T05:59:12;9.10;99.90
16289;DHT22;26089;43.538;5.250;2023-04-03T06:01:39;9.10;99.90
16289;DHT22;26089;43.538;5.250;2023-04-03T06:04:07;9.10;99.90
16289;DHT22;26089;43.538;5.250;2023-04-03T06:06:45;9.10;99.90
16289;DHT22;26089;43.538;5.250;2023-04-03T06:09:14;9.20;99.90
16289;DHT22;26089;43.538;5.250;2023-04-03T06:11:42;9.20;99.90
16289;DHT22;26089;43.538;5.250;2023-04-03T06:14:09;9.30;99.90
16289;DHT22;26089;43.538;5.250;2023-04-03T06:16:36;9.60;99.90
16289;DHT22;26089;43.538;5.250;2023-04-03T06:19:03;9.40;99.90
16289;DHT22;26089;43.538;5.250;2023-04-03T06:21:31;9.40;99.90
16289;DHT22;26089;43.538;5.250;2023-04-03T06:23:58;9.50;99.90
16289;DHT22;26089;43.538;5.250;2023-04-03T06:26:26;9.80;99.90
16289;DHT22;26089;43.538;5.250;2023-04-03T06:28:54;9.90;99.90
16289;DHT22;26089;43.538;5.250;2023-04-03T06:31:21;10.10;99.90
16289;DHT22;26089;43.538;5.250;2023-04-03T06:33:48;10.10;99.90
16289;DHT22;26089;43.538;5.250;2023-04-03T06:36:15;10.60;99.90
16289;DHT22;26089;43.538;5.250;2023-04-03T06:38:45;10.10;99.90
16289;DHT22;26089;43.538;5.250;2023-04-03T06:41:12;10.20;99.90
16289;DHT22;26089;43.538;5.250;2023-04-03T06:43:41;10.20;99.90
16289;DHT22;26089;43.538;5.250;2023-04-03T06:46:13;10.30;99.90
16289;DHT22;26089;43.538;5.250;2023-04-03T06:48:41;10.30;99.90
16289;DHT22;26089;43.538;5.250;2023-04-03T06:51:15;10.40;99.90
16289;DHT22;26089;43.538;5.250;2023-04-03T06:53:43;10.10;99.90
16289;DHT22;26089;43.538;5.250;2023-04-03T06:56:11;10.60;99.90
16289;DHT22;26089;43.538;5.250;2023-04-03T06:58:38;10.80;99.90
16289;DHT22;26089;43.538;5.250;2023-04-03T07:01:06;11.00;99.90
16289;DHT22;26089;43.538;5.250;2023-04-03T07:03:35;12.00;99.90
16289;DHT22;26089;43.538;5.250;2023-04-03T07:06:02;13.50;99.90
16289;DHT22;26089;43.538;5.250;2023-04-03T07:08:29;14.50;99.90
16289;DHT22;26089;43.538;5.250;2023-04-03T07:10:56;15.50;99.90
16289;DHT22;26089;43.538;5.250;2023-04-03T07:13:23;16.30;99.90
16289;DHT22;26089;43.538;5.250;2023-04-03T07:15:50;16.70;99.90
16289;DHT22;26089;43.538;5.250;2023-04-03T07:18:19;17.10;99.90
16289;DHT22;26089;43.538;5.250;2023-04-03T07:20:47;17.30;99.90
16289;DHT22;26089;43.538;5.250;2023-04-03T07:23:14;17.00;99.90
16289;DHT22;26089;43.538;5.250;2023-04-03T07:25:43;16.90;99.90
16289;DHT22;26089;43.538;5.250;2023-04-03T07:28:10;17.50;99.90
16289;DHT22;26089;43.538;5.250;2023-04-03T07:30:43;18.20;99.90
16289;DHT22;26089;43.538;5.250;2023-04-03T07:33:10;18.80;99.90
16289;DHT22;26089;43.538;5.250;2023-04-03T07:35:40;19.10;99.90
16289;DHT22;26089;43.538;5.250;2023-04-03T07:38:07;19.20;99.90
16289;DHT22;26089;43.538;5.250;2023-04-03T07:40:35;19.30;99.90
16289;DHT22;26089;43.538;5.250;2023-04-03T07:43:02;19.60;99.90
16289;DHT22;26089;43.538;5.250;2023-04-03T07:45:29;19.10;99.90
16289;DHT22;26089;43.538;5.250;2023-04-03T07:47:56;19.50;99.90
16289;DHT22;26089;43.538;5.250;2023-04-03T07:50:24;19.50;99.90
16289;DHT22;26089;43.538;5.250;2023-04-03T07:52:54;19.40;99.90
16289;DHT22;26089;43.538;5.250;2023-04-03T07:55:23;19.50;99.90
16289;DHT22;26089;43.538;5.250;2023-04-03T07:57:50;19.30;99.90
16289;DHT22;26089;43.538;5.250;2023-04-03T08:00:17;19.70;99.90
16289;DHT22;26089;43.538;5.250;2023-04-03T08:02:45;19.70;99.90
16289;DHT22;26089;43.538;5.250;2023-04-03T08:05:16;19.80;99.90
16289;DHT22;26089;43.538;5.250;2023-04-03T08:07:43;19.80;99.90
16289;DHT22;26089;43.538;5.250;2023-04-03T08:10:11;18.70;99.90
16289;DHT22;26089;43.538;5.250;2023-04-03T08:12:38;19.30;99.90
16289;DHT22;26089;43.538;5.250;2023-04-03T08:15:07;19.10;99.90
16289;DHT22;26089;43.538;5.250;2023-04-03T08:17:34;19.70;99.90
16289;DHT22;26089;43.538;5.250;2023-04-03T08:20:01;20.10;99.90
16289;DHT22;26089;43.538;5.250;2023-04-03T08:22:29;20.10;99.90
16289;DHT22;26089;43.538;5.250;2023-04-03T08:24:56;20.00;99.90
16289;DHT22;26089;43.538;5.250;2023-04-03T08:27:25;20.30;99.90
16289;DHT22;26089;43.538;5.250;2023-04-03T08:29:53;19.90;99.90
16289;DHT22;26089;43.538;5.250;2023-04-03T08:32:20;20.50;99.90
16289;DHT22;26089;43.538;5.250;2023-04-03T08:34:47;20.80;99.90
16289;DHT22;26089;43.538;5.250;2023-04-03T08:37:13;21.30;99.90
16289;DHT22;26089;43.538;5.250;2023-04-03T08:39:41;20.60;99.90
16289;DHT22;26089;43.538;5.250;2023-04-03T08:42:16;20.60;99.90
16289;DHT22;26089;43.538;5.250;2023-04-03T08:44:49;20.60;99.90
16289;DHT22;26089;43.538;5.250;2023-04-03T08:47:24;21.30;99.90
16289;DHT22;26089;43.538;5.250;2023-04-03T08:49:56;21.40;99.90
16289;DHT22;26089;43.538;5.250;2023-04-03T08:52:28;20.20;99.90
16289;DHT22;26089;43.538;5.250;2023-04-03T08:55:00;20.90;99.90
16289;DHT22;26089;43.538;5.250;2023-04-03T08:57:30;21.10;99.90
16289;DHT22;26089;43.538;5.250;2023-04-03T09:00:01;21.20;99.90
16289;DHT22;26089;43.538;5.250;2023-04-03T09:02:33;20.70;99.90
16289;DHT22;26089;43.538;5.250;2023-04-03T09:05:02;20.90;99.90
16289;DHT22;26089;43.538;5.250;2023-04-03T09:07:35;20.60;99.90
16289;DHT22;26089;43.538;5.250;2023-04-03T09:10:03;21.20;99.90
16289;DHT22;26089;43.538;5.250;2023-04-03T09:12:35;21.40;99.90
16289;DHT22;26089;43.538;5.250;2023-04-03T09:15:13;20.90;99.90
16289;DHT22;26089;43.538;5.250;2023-04-03T09:17:49;20.80;99.90
16289;DHT22;26089;43.538;5.250;2023-04-03T09:20:24;20.60;99.90
16289;DHT22;26089;43.538;5.250;2023-04-03T09:22:53;19.70;99.90
16289;DHT22;26089;43.538;5.250;2023-04-03T09:25:22;20.40;99.90
16289;DHT22;26089;43.538;5.250;2023-04-03T09:27:49;20.10;99.90
16289;DHT22;26089;43.538;5.250;2023-04-03T09:30:20;20.40;99.90
16289;DHT22;26089;43.538;5.250;2023-04-03T09:32:50;20.80;99.90
16289;DHT22;26089;43.538;5.250;2023-04-03T09:35:21;21.20;99.90
16289;DHT22;26089;43.538;5.250;2023-04-03T09:37:50;20.80;99.90
16289;DHT22;26089;43.538;5.250;2023-04-03T09:40:33;20.50;99.90
16289;DHT22;26089;43.538;5.250;2023-04-03T09:43:02;20.90;99.90
16289;DHT22;26089;43.538;5.250;2023-04-03T09:45:47;21.10;99.90
16289;DHT22;26089;43.538;5.250;2023-04-03T09:48:17;21.00;99.90
16289;DHT22;26089;43.538;5.250;2023-04-03T09:50:57;21.10;99.90
16289;DHT22;26089;43.538;5.250;2023-04-03T09:53:28;21.30;99.90
16289;DHT22;26089;43.538;5.250;2023-04-03T09:55:56;21.50;99.90
16289;DHT22;26089;43.538;5.250;2023-04-03T09:58:26;21.50;99.90
16289;DHT22;26089;43.538;5.250;2023-04-03T10:00:57;21.10;99.90
16289;DHT22;26089;43.538;5.250;2023-04-03T10:03:27;21.00;99.90
16289;DHT22;26089;43.538;5.250;2023-04-03T10:05:54;21.30;99.90
16289;DHT22;26089;43.538;5.250;2023-04-03T10:08:29;21.50;99.90
16289;DHT22;26089;43.538;5.250;2023-04-03T10:11:13;21.70;99.90
16289;DHT22;26089;43.538;5.250;2023-04-03T10:13:52;22.60;99.90
16289;DHT22;26089;43.538;5.250;2023-04-03T10:16:25;22.80;99.90
16289;DHT22;26089;43.538;5.250;2023-04-03T10:19:03;21.90;99.90
16289;DHT22;26089;43.538;5.250;2023-04-03T10:21:38;22.10;99.90
16289;DHT22;26089;43.538;5.250;2023-04-03T10:24:11;21.50;99.90
16289;DHT22;26089;43.538;5.250;2023-04-03T10:26:45;21.30;99.90
16289;DHT22;26089;43.538;5.250;2023-04-03T10:29:27;21.80;99.90
16289;DHT22;26089;43.538;5.250;2023-04-03T10:32:08;21.80;99.90
16289;DHT22;26089;43.538;5.250;2023-04-03T10:34:38;21.70;99.90
16289;DHT22;26089;43.538;5.250;2023-04-03T10:37:13;21.80;99.90
16289;DHT22;26089;43.538;5.250;2023-04-03T10:39:46;21.90;99.90
16289;DHT22;26089;43.538;5.250;2023-04-03T10:42:23;22.10;99.90
16289;DHT22;26089;43.538;5.250;2023-04-03T10:45:15;22.40;99.90
16289;DHT22;26089;43.538;5.250;2023-04-03T10:47:52;22.70;99.90
16289;DHT22;26089;43.538;5.250;2023-04-03T10:50:31;23.10;99.90
16289;DHT22;26089;43.538;5.250;2023-04-03T10:53:06;23.30;99.90
16289;DHT22;26089;43.538;5.250;2023-04-03T10:55:38;23.40;99.90
16289;DHT22;26089;43.538;5.250;2023-04-03T10:58:20;23.30;99.90
16289;DHT22;26089;43.538;5.250;2023-04-03T11:00:49;23.00;99.90
16289;DHT22;26089;43.538;5.250;2023-04-03T11:03:27;22.90;99.90
16289;DHT22;26089;43.538;5.250;2023-04-03T11:05:59;23.00;99.90
16289;DHT22;26089;43.538;5.250;2023-04-03T11:08:31;22.90;99.90
16289;DHT22;26089;43.538;5.250;2023-04-03T11:11:02;23.40;99.90
16289;DHT22;26089;43.538;5.250;2023-04-03T11:13:34;23.90;99.90
16289;DHT22;26089;43.538;5.250;2023-04-03T11:16:03;24.00;99.90
16289;DHT22;26089;43.538;5.250;2023-04-03T11:18:35;24.20;99.90
16289;DHT22;26089;43.538;5.250;2023-04-03T11:21:07;24.50;99.90
16289;DHT22;26089;43.538;5.250;2023-04-03T11:23:36;24.00;99.90
16289;DHT22;26089;43.538;5.250;2023-04-03T11:26:11;23.90;99.90
16289;DHT22;26089;43.538;5.250;2023-04-03T11:28:38;23.40;99.90
16289;DHT22;26089;43.538;5.250;2023-04-03T11:34:13;23.80;99.90
16289;DHT22;26089;43.538;5.250;2023-04-03T11:36:45;24.60;99.90
16289;DHT22;26089;43.538;5.250;2023-04-03T11:39:20;24.20;99.90
16289;DHT22;26089;43.538;5.250;2023-04-03T11:41:49;24.80;99.90
16289;DHT22;26089;43.538;5.250;2023-04-03T11:44:34;24.10;99.90
16289;DHT22;26089;43.538;5.250;2023-04-03T11:47:03;23.30;99.90
16289;DHT22;26089;43.538;5.250;2023-04-03T11:49:54;23.20;99.90
16289;DHT22;26089;43.538;5.250;2023-04-03T11:52:56;23.90;99.90
16289;DHT22;26089;43.538;5.250;2023-04-03T11:55:52;23.50;99.90
16289;DHT22;26089;43.538;5.250;2023-04-03T11:58:20;24.40;99.90
16289;DHT22;26089;43.538;5.250;2023-04-03T12:00:54;24.40;99.90
16289;DHT22;26089;43.538;5.250;2023-04-03T12:07:00;24.20;99.90
16289;DHT22;26089;43.538;5.250;2023-04-03T12:12:35;24.10;99.90
16289;DHT22;26089;43.538;5.250;2023-04-03T12:15:44;24.20;99.90
16289;DHT22;26089;43.538;5.250;2023-04-03T12:18:41;24.40;99.90
16289;DHT22;26089;43.538;5.250;2023-04-03T12:21:09;24.20;99.90
16289;DHT22;26089;43.538;5.250;2023-04-03T12:23:57;24.00;99.90
16289;DHT22;26089;43.538;5.250;2023-04-03T12:26:27;24.40;99.90
16289;DHT22;26089;43.538;5.250;2023-04-03T12:28:57;24.90;99.90
16289;DHT22;26089;43.538;5.250;2023-04-03T12:31:36;24.60;99.90
16289;DHT22;26089;43.538;5.250;2023-04-03T12:34:18;24.90;99.90
16289;DHT22;26089;43.538;5.250;2023-04-03T12:36:58;25.50;99.90
16289;DHT22;26089;43.538;5.250;2023-04-03T12:39:47;25.80;99.90
16289;DHT22;26089;43.538;5.250;2023-04-03T12:42:32;25.80;99.90
16289;DHT22;26089;43.538;5.250;2023-04-03T12:45:13;25.60;99.90
16289;DHT22;26089;43.538;5.250;2023-04-03T12:47:44;25.40;99.90
16289;DHT22;26089;43.538;5.250;2023-04-03T12:50:19;25.00;99.90
16289;DHT22;26089;43.538;5.250;2023-04-03T12:52:54;24.70;99.90
16289;DHT22;26089;43.538;5.250;2023-04-03T12:55:23;24.30;99.90
16289;DHT22;26089;43.538;5.250;2023-04-03T12:57:50;24.10;99.90
16289;DHT22;26089;43.538;5.250;2023-04-03T13:00:25;23.80;99.90
16289;DHT22;26089;43.538;5.250;2023-04-03T13:02:54;24.30;99.90
16289;DHT22;26089;43.538;5.250;2023-04-03T13:05:22;24.30;99.90
16289;DHT22;26089;43.538;5.250;2023-04-03T13:07:50;24.20;99.90
16289;DHT22;26089;43.538;5.250;2023-04-03T13:10:19;24.00;99.90
16289;DHT22;26089;43.538;5.250;2023-04-03T13:12:50;24.20;99.90
16289;DHT22;26089;43.538;5.250;2023-04-03T13:15:19;24.60;99.90
16289;DHT22;26089;43.538;5.250;2023-04-03T13:17:47;23.90;99.90
16289;DHT22;26089;43.538;5.250;2023-04-03T13:20:20;23.40;99.90
16289;DHT22;26089;43.538;5.250;2023-04-03T13:22:54;23.50;99.90
16289;DHT22;26089;43.538;5.250;2023-04-03T13:25:24;23.60;99.90
16289;DHT22;26089;43.538;5.250;2023-04-03T13:27:54;23.60;99.90
16289;DHT22;26089;43.538;5.250;2023-04-03T13:30:26;23.50;99.90
16289;DHT22;26089;43.538;5.250;2023-04-03T13:32:55;23.30;99.90
16289;DHT22;26089;43.538;5.250;2023-04-03T13:35:33;23.80;99.90
16289;DHT22;26089;43.538;5.250;2023-04-03T13:38:04;23.70;99.90
16289;DHT22;26089;43.538;5.250;2023-04-03T13:40:32;23.40;99.90
16289;DHT22;26089;43.538;5.250;2023-04-03T13:43:04;23.00;99.90
16289;DHT22;26089;43.538;5.250;2023-04-03T13:45:33;22.70;99.90
16289;DHT22;26089;43.538;5.250;2023-04-03T13:48:11;22.40;99.90
16289;DHT22;26089;43.538;5.250;2023-04-03T13:50:57;22.40;99.90
16289;DHT22;26089;43.538;5.250;2023-04-03T13:53:26;22.30;99.90
16289;DHT22;26089;43.538;5.250;2023-04-03T13:56:00;22.60;99.90
16289;DHT22;26089;43.538;5.250;2023-04-03T13:58:33;22.40;99.90
16289;DHT22;26089;43.538;5.250;2023-04-03T14:01:08;22.00;99.90
16289;DHT22;26089;43.538;5.250;2023-04-03T14:03:42;21.90;99.90
16289;DHT22;26089;43.538;5.250;2023-04-03T14:06:11;21.80;99.90
16289;DHT22;26089;43.538;5.250;2023-04-03T14:08:39;22.50;99.90
16289;DHT22;26089;43.538;5.250;2023-04-03T14:11:11;22.90;99.90
16289;DHT22;26089;43.538;5.250;2023-04-03T14:13:41;22.60;99.90
16289;DHT22;26089;43.538;5.250;2023-04-03T14:16:11;22.50;99.90
16289;DHT22;26089;43.538;5.250;2023-04-03T14:18:39;22.40;99.90
16289;DHT22;26089;43.538;5.250;2023-04-03T14:21:06;22.60;99.90
16289;DHT22;26089;43.538;5.250;2023-04-03T14:23:33;22.50;99.90
16289;DHT22;26089;43.538;5.250;2023-04-03T14:26:00;22.20;99.90
16289;DHT22;26089;43.538;5.250;2023-04-03T14:28:27;21.90;99.90
16289;DHT22;26089;43.538;5.250;2023-04-03T14:30:56;21.70;99.90
16289;DHT22;26089;43.538;5.250;2023-04-03T14:33:23;21.50;99.90
16289;DHT22;26089;43.538;5.250;2023-04-03T14:35:51;21.50;99.90
16289;DHT22;26089;43.538;5.250;2023-04-03T14:38:23;21.80;99.90
16289;DHT22;26089;43.538;5.250;2023-04-03T14:40:51;22.00;99.90
16289;DHT22;26089;43.538;5.250;2023-04-03T14:43:19;21.60;99.90
16289;DHT22;26089;43.538;5.250;2023-04-03T14:45:46;21.40;99.90
16289;DHT22;26089;43.538;5.250;2023-04-03T14:48:18;21.40;99.90
16289;DHT22;26089;43.538;5.250;2023-04-03T14:50:46;21.20;99.90
16289;DHT22;26089;43.538;5.250;2023-04-03T14:53:14;21.20;99.90
16289;DHT22;26089;43.538;5.250;2023-04-03T14:55:43;20.90;99.90
16289;DHT22;26089;43.538;5.250;2023-04-03T14:58:13;21.00;99.90
16289;DHT22;26089;43.538;5.250;2023-04-03T15:00:41;21.40;99.90
16289;DHT22;26089;43.538;5.250;2023-04-03T15:03:13;21.20;99.90
16289;DHT22;26089;43.538;5.250;2023-04-03T15:05:44;21.20;99.90
16289;DHT22;26089;43.538;5.250;2023-04-03T15:08:19;21.20;99.90
16289;DHT22;26089;43.538;5.250;2023-04-03T15:10:47;21.00;99.90
16289;DHT22;26089;43.538;5.250;2023-04-03T15:13:14;20.80;99.90
16289;DHT22;26089;43.538;5.250;2023-04-03T15:15:42;21.10;99.90
16289;DHT22;26089;43.538;5.250;2023-04-03T15:18:15;21.30;99.90
16289;DHT22;26089;43.538;5.250;2023-04-03T15:20:45;21.40;99.90
16289;DHT22;26089;43.538;5.250;2023-04-03T15:23:13;21.40;99.90
16289;DHT22;26089;43.538;5.250;2023-04-03T15:25:41;21.20;99.90
16289;DHT22;26089;43.538;5.250;2023-04-03T15:28:13;20.90;99.90
16289;DHT22;26089;43.538;5.250;2023-04-03T15:30:42;20.50;99.90
16289;DHT22;26089;43.538;5.250;2023-04-03T15:33:09;20.50;99.90
16289;DHT22;26089;43.538;5.250;2023-04-03T15:35:36;20.30;99.90
16289;DHT22;26089;43.538;5.250;2023-04-03T15:38:05;20.10;99.90
16289;DHT22;26089;43.538;5.250;2023-04-03T15:40:32;19.90;99.90
16289;DHT22;26089;43.538;5.250;2023-04-03T15:42:59;19.80;99.90
16289;DHT22;26089;43.538;5.250;2023-04-03T15:45:29;19.60;99.90
16289;DHT22;26089;43.538;5.250;2023-04-03T15:47:57;19.80;99.90
16289;DHT22;26089;43.538;5.250;2023-04-03T15:50:24;20.10;99.90
16289;DHT22;26089;43.538;5.250;2023-04-03T15:52:51;19.80;99.90
16289;DHT22;26089;43.538;5.250;2023-04-03T15:55:21;19.70;99.90
16289;DHT22;26089;43.538;5.250;2023-04-03T15:57:48;19.80;99.90
16289;DHT22;26089;43.538;5.250;2023-04-03T16:00:16;19.90;99.90
16289;DHT22;26089;43.538;5.250;2023-04-03T16:02:45;19.50;99.90
16289;DHT22;26089;43.538;5.250;2023-04-03T16:05:12;19.20;99.90